createdAt,value
2022-12-29T00:01:39.161Z,99433.88
2022-12-29T00:04:11.383Z,99443.63
2022-12-29T00:06:41.048Z,99443.41
2022-12-29T00:09:07.649Z,99436.22
2022-12-29T00:11:34.630Z,99434.34
2022-12-29T00:14:25.690Z,99431.44
2022-12-29T00:16:52.651Z,99441.59
2022-12-29T00:19:38.041Z,99435.00
2022-12-29T00:22:23.499Z,99427.56
2022-12-29T00:25:02.520Z,99439.78
2022-12-29T00:27:49.368Z,99443.94
2022-12-29T00:30:40.616Z,99434.41
2022-12-29T00:33:37.094Z,99429.47
2022-12-29T00:36:03.522Z,99431.75
2022-12-29T00:38:50.591Z,99435.91
2022-12-29T00:41:35.772Z,99413.16
2022-12-29T00:44:08.417Z,99416.25
2022-12-29T00:46:35.799Z,99405.31
2022-12-29T00:49:22.373Z,99411.09
2022-12-29T00:51:49.450Z,99409.88
2022-12-29T00:54:16.491Z,99391.66
2022-12-29T00:56:50.349Z,99388.75
2022-12-29T00:59:17.782Z,99387.53
2022-12-29T01:01:45.189Z,99387.31
2022-12-29T01:04:12.190Z,99384.44
2022-12-29T01:06:40.386Z,99396.66
2022-12-29T01:09:27.132Z,99393.75
2022-12-29T01:11:53.486Z,99401.63
2022-12-29T01:14:20.814Z,99387.13
2022-12-29T01:16:47.574Z,99383.22
2022-12-29T01:19:15.964Z,99377.63
2022-12-29T01:21:45.180Z,99385.47
2022-12-29T01:24:11.551Z,99380.91
2022-12-29T01:26:38.033Z,99378.03
2022-12-29T01:29:04.418Z,99379.69
2022-12-29T01:31:30.844Z,99396.69
2022-12-29T01:33:57.232Z,99383.81
2022-12-29T01:36:25.408Z,99377.63
2022-12-29T01:38:51.964Z,99375.97
2022-12-29T01:41:18.706Z,99348.25
2022-12-29T01:44:01.917Z,99360.00
2022-12-29T01:46:44.076Z,99362.94
2022-12-29T01:49:24.380Z,99350.50
2022-12-29T01:51:59.778Z,99351.31
2022-12-29T01:54:31.917Z,99348.03
2022-12-29T01:57:01.489Z,99351.72
2022-12-29T01:59:35.636Z,99343.66
2022-12-29T02:02:02.732Z,99337.63
2022-12-29T02:04:33.325Z,99348.41
2022-12-29T02:07:08.637Z,99336.00
2022-12-29T02:09:35.212Z,99349.44
2022-12-29T02:12:01.745Z,99342.44
2022-12-29T02:14:28.169Z,99334.53
2022-12-29T02:16:54.562Z,99334.53
2022-12-29T02:19:58.564Z,99323.78
2022-12-29T02:22:36.717Z,99321.31
2022-12-29T02:25:27.740Z,99333.91
2022-12-29T02:27:56.725Z,99319.63
2022-12-29T02:30:44.779Z,99323.38
2022-12-29T02:33:46.749Z,99314.66
2022-12-29T02:36:28.385Z,99307.22
2022-12-29T02:39:14.426Z,99320.88
2022-12-29T02:42:09.358Z,99312.59
2022-12-29T02:44:48.857Z,99312.59
2022-12-29T02:47:30.342Z,99318.00
2022-12-29T02:50:19.367Z,99308.88
2022-12-29T02:53:10.842Z,99297.91
2022-12-29T02:55:37.261Z,99298.75
2022-12-29T02:58:09.658Z,99299.38
2022-12-29T03:00:43.824Z,99310.72
2022-12-29T03:03:25.708Z,99305.97
2022-12-29T03:06:30.477Z,99303.91
2022-12-29T03:09:19.020Z,99298.53
2022-12-29T03:12:08.941Z,99289.41
2022-12-29T03:15:01.632Z,99292.72
2022-12-29T03:17:36.005Z,99280.94
2022-12-29T03:20:08.609Z,99282.59
2022-12-29T03:22:40.507Z,99275.34
2022-12-29T03:25:16.576Z,99281.53
2022-12-29T03:27:47.947Z,99277.81
2022-12-29T03:30:15.123Z,99264.38
2022-12-29T03:32:55.585Z,99264.16
2022-12-29T03:35:25.825Z,99270.38
2022-12-29T03:38:11.891Z,99270.56
2022-12-29T03:40:42.701Z,99267.69
2022-12-29T03:43:10.086Z,99265.19
2022-12-29T03:45:36.434Z,99260.22
2022-12-29T03:48:02.976Z,99255.69
2022-12-29T03:50:29.346Z,99256.28
2022-12-29T03:52:55.710Z,99244.25
2022-12-29T03:55:22.024Z,99240.13
2022-12-29T03:57:48.380Z,99242.38
2022-12-29T04:00:15.110Z,99245.47
2022-12-29T04:02:41.897Z,99242.38
2022-12-29T04:05:08.681Z,99234.72
2022-12-29T04:07:35.089Z,99244.22
2022-12-29T04:10:01.464Z,99243.03
2022-12-29T04:12:28.175Z,99231.81
2022-12-29T04:14:54.781Z,99230.56
2022-12-29T04:17:21.257Z,99241.75
2022-12-29T04:19:47.690Z,99230.75
2022-12-29T04:22:14.074Z,99236.78
2022-12-29T04:24:40.721Z,99242.56
2022-12-29T04:27:07.093Z,99240.47
2022-12-29T04:29:34.348Z,99242.94
2022-12-29T04:32:00.745Z,99235.47
2022-12-29T04:34:27.118Z,99230.72
2022-12-29T04:36:53.571Z,99222.44
2022-12-29T04:39:19.956Z,99219.75
2022-12-29T04:41:47.251Z,99228.22
2022-12-29T04:44:13.767Z,99223.66
2022-12-29T04:46:40.686Z,99233.81
2022-12-29T04:49:09.519Z,99236.50
2022-12-29T04:51:36.506Z,99232.16
2022-12-29T04:54:02.911Z,99232.34
2022-12-29T04:56:29.343Z,99233.22
2022-12-29T04:58:55.756Z,99253.09
2022-12-29T05:01:22.323Z,99240.69
2022-12-29T05:03:51.341Z,99242.56
2022-12-29T05:06:17.738Z,99233.03
2022-12-29T05:08:45.020Z,99235.91
2022-12-29T05:11:11.441Z,99235.53
2022-12-29T05:13:37.832Z,99232.22
2022-12-29T05:16:04.480Z,99234.47
2022-12-29T05:18:30.908Z,99240.09
2022-12-29T05:20:57.369Z,99234.50
2022-12-29T05:23:23.710Z,99228.91
2022-12-29T05:25:50.068Z,99249.19
2022-12-29T05:28:16.438Z,99247.97
2022-12-29T05:30:44.953Z,99248.41
2022-12-29T05:33:12.666Z,99247.16
2022-12-29T05:35:39.091Z,99245.94
2022-12-29T05:38:05.417Z,99239.31
2022-12-29T05:40:31.872Z,99248.00
2022-12-29T05:42:59.261Z,99262.94
2022-12-29T05:45:25.686Z,99260.84
2022-12-29T05:47:52.203Z,99290.06
2022-12-29T05:50:18.574Z,99297.69
2022-12-29T05:52:44.994Z,99296.47
2022-12-29T05:55:12.152Z,99301.41
2022-12-29T05:57:39.011Z,99291.28
2022-12-29T06:00:06.464Z,99290.66
2022-12-29T06:02:33.054Z,99293.75
2022-12-29T06:04:59.741Z,99304.72
2022-12-29T06:07:26.216Z,99284.44
2022-12-29T06:09:52.578Z,99285.47
2022-12-29T06:12:18.937Z,99297.25
2022-12-29T06:14:45.417Z,99291.06
2022-12-29T06:17:11.830Z,99288.59
2022-12-29T06:19:38.284Z,99298.50
2022-12-29T06:22:04.693Z,99288.16
2022-12-29T06:24:31.331Z,99291.06
2022-12-29T06:26:57.696Z,99302.00
2022-12-29T06:29:24.083Z,99305.53
2022-12-29T06:31:52.013Z,99314.00
2022-12-29T06:34:18.500Z,99308.59
2022-12-29T06:36:44.853Z,99310.44
2022-12-29T06:39:11.866Z,99317.25
2022-12-29T06:41:38.852Z,99320.75
2022-12-29T06:44:05.447Z,99337.28
2022-12-29T06:46:31.984Z,99332.31
2022-12-29T06:48:58.470Z,99330.66
2022-12-29T06:51:24.985Z,99322.38
2022-12-29T06:53:51.386Z,99334.59
2022-12-29T06:56:17.806Z,99335.22
2022-12-29T06:58:44.245Z,99352.63
2022-12-29T07:01:10.865Z,99334.41
2022-12-29T07:03:37.290Z,99353.84
2022-12-29T07:06:04.192Z,99365.06
2022-12-29T07:08:30.533Z,99336.91
2022-12-29T07:10:56.933Z,99352.84
2022-12-29T07:13:23.374Z,99346.66
2022-12-29T07:15:49.825Z,99357.41
2022-12-29T07:18:16.277Z,99347.88
2022-12-29T07:20:43.685Z,99355.53
2022-12-29T07:23:10.135Z,99365.03
2022-12-29T07:25:37.003Z,99359.41
2022-12-29T07:28:04.535Z,99359.19
2022-12-29T07:30:30.990Z,99362.47
2022-12-29T07:32:57.920Z,99365.78
2022-12-29T07:35:24.339Z,99369.88
2022-12-29T07:37:51.255Z,99375.03
2022-12-29T07:40:17.723Z,99382.66
2022-12-29T07:42:45.287Z,99392.94
2022-12-29T07:45:11.839Z,99387.31
2022-12-29T07:47:38.177Z,99390.41
2022-12-29T07:50:05.845Z,99400.53
2022-12-29T07:52:32.245Z,99399.06
2022-12-29T07:54:58.686Z,99387.88
2022-12-29T07:57:31.306Z,99396.97
2022-12-29T07:59:58.327Z,99400.66
2022-12-29T08:02:24.885Z,99405.44
2022-12-29T08:04:51.384Z,99392.00
2022-12-29T08:07:17.821Z,99396.31
2022-12-29T08:09:44.250Z,99406.88
2022-12-29T08:12:13.374Z,99405.66
2022-12-29T08:14:39.847Z,99395.53
2022-12-29T08:17:06.416Z,99408.59
2022-12-29T08:19:32.852Z,99412.53
2022-12-29T08:21:59.213Z,99413.81
2022-12-29T08:24:25.658Z,99409.91
2022-12-29T08:26:52.087Z,99415.72
2022-12-29T08:29:18.501Z,99427.94
2022-12-29T08:31:45.003Z,99414.94
2022-12-29T08:34:11.893Z,99425.28
2022-12-29T08:36:38.222Z,99423.88
2022-12-29T08:39:04.744Z,99420.59
2022-12-29T08:41:31.431Z,99416.28
2022-12-29T08:43:57.918Z,99413.00
2022-12-29T08:46:24.496Z,99415.72
2022-12-29T08:48:50.942Z,99422.13
2022-12-29T08:51:22.792Z,99425.06
2022-12-29T08:53:51.597Z,99412.66
2022-12-29T08:56:18.284Z,99412.28
2022-12-29T08:58:44.666Z,99409.38
2022-12-29T09:01:11.664Z,99413.75
2022-12-29T09:04:12.931Z,99415.16
2022-12-29T09:06:24.904Z,99422.88
2022-12-29T09:08:51.340Z,99417.25
2022-12-29T09:11:20.955Z,99420.19
2022-12-29T09:13:48.171Z,99430.53
2022-12-29T09:16:16.167Z,99434.28
2022-12-29T09:18:43.108Z,99432.03
2022-12-29T09:21:11.592Z,99426.88
2022-12-29T09:23:39.051Z,99441.38
2022-12-29T09:26:05.595Z,99427.31
2022-12-29T09:28:32.333Z,99427.53
2022-12-29T09:30:59.781Z,99430.63
2022-12-29T09:33:26.559Z,99420.50
2022-12-29T09:35:58.918Z,99417.41
2022-12-29T09:38:27.252Z,99419.03
2022-12-29T09:40:57.027Z,99424.00
2022-12-29T09:43:41.762Z,99437.09
2022-12-29T09:46:24.552Z,99435.63
2022-12-29T09:49:19.904Z,99448.06
2022-12-29T09:51:50.340Z,99431.53
2022-12-29T09:54:29.069Z,99437.34
2022-12-29T09:56:56.940Z,99450.63
2022-12-29T09:59:40.380Z,99431.53
2022-12-29T10:02:18.072Z,99428.63
2022-12-29T10:04:44.802Z,99431.53
2022-12-29T10:07:31.294Z,99429.88
2022-12-29T10:10:08.178Z,99430.25
2022-12-29T10:13:01.459Z,99422.81
2022-12-29T10:16:01.100Z,99421.78
2022-12-29T10:18:46.123Z,99427.78
2022-12-29T10:21:37.726Z,99418.66
2022-12-29T10:24:08.292Z,99417.63
2022-12-29T10:26:41.520Z,99418.25
2022-12-29T10:29:18.643Z,99428.59
2022-12-29T10:31:50.428Z,99421.97
2022-12-29T10:34:34.363Z,99425.69
2022-12-29T10:37:33.436Z,99431.25
2022-12-29T10:40:12.349Z,99431.03
2022-12-29T10:42:45.906Z,99424.81
2022-12-29T10:45:18.569Z,99432.25
2022-12-29T10:48:04.921Z,99430.16
2022-12-29T10:50:31.614Z,99423.53
2022-12-29T10:53:05.684Z,99422.50
2022-12-29T10:55:36.156Z,99428.47
2022-12-29T10:58:05.977Z,99429.53
2022-12-29T11:00:34.323Z,99417.09
2022-12-29T11:03:22.763Z,99426.22
2022-12-29T11:06:09.813Z,99423.75
2022-12-29T11:08:46.293Z,99421.25
2022-12-29T11:11:13.136Z,99430.59
2022-12-29T11:13:51.668Z,99421.69
2022-12-29T11:16:35.485Z,99420.25
2022-12-29T11:19:02.859Z,99407.19
2022-12-29T11:21:43.023Z,99423.97
2022-12-29T11:24:27.852Z,99431.84
2022-12-29T11:27:09.158Z,99430.22
2022-12-29T11:29:42.124Z,99437.88
2022-12-29T11:32:22.759Z,99439.31
2022-12-29T11:34:54.588Z,99428.53
2022-12-29T11:37:31.475Z,99448.84
2022-12-29T11:39:59.319Z,99444.06
2022-12-29T11:42:49.588Z,99462.72
2022-12-29T11:45:21.247Z,99461.69
2022-12-29T11:47:57.676Z,99468.94
2022-12-29T11:50:33.485Z,99463.78
2022-12-29T11:53:21.123Z,99469.59
2022-12-29T11:56:00.189Z,99475.41
2022-12-29T11:58:33.356Z,99472.94
2022-12-29T12:01:18.050Z,99500.09
2022-12-29T12:04:14.554Z,99484.34
2022-12-29T12:06:50.210Z,99477.06
2022-12-29T12:09:36.266Z,99489.94
2022-12-29T12:12:04.577Z,99484.53
2022-12-29T12:14:41.940Z,99503.44
2022-12-29T12:17:24.922Z,99500.31
2022-12-29T12:20:33.135Z,99492.47
2022-12-29T12:23:13.228Z,99499.94
2022-12-29T12:25:48.737Z,99501.38
2022-12-29T12:28:30.445Z,99511.53
2022-12-29T12:31:02.379Z,99528.13
2022-12-29T12:33:34.622Z,99525.84
2022-12-29T12:36:10.257Z,99523.59
2022-12-29T12:39:02.110Z,99548.28
2022-12-29T12:41:47.580Z,99549.50
2022-12-29T12:44:29.564Z,99537.28
2022-12-29T12:47:10.364Z,99551.19
2022-12-29T12:50:14.567Z,99548.03
2022-12-29T12:53:07.034Z,99542.47
2022-12-29T12:55:58.316Z,99564.22
2022-12-29T12:58:42.497Z,99566.09
2022-12-29T13:01:16.693Z,99557.19
2022-12-29T13:03:56.020Z,99585.78
2022-12-29T13:06:36.200Z,99574.19
2022-12-29T13:09:19.684Z,99563.41
2022-12-29T13:11:58.958Z,99565.03
2022-12-29T13:14:25.338Z,99564.22
2022-12-29T13:17:09.233Z,99591.59
2022-12-29T13:19:48.998Z,99581.66
2022-12-29T13:22:21.501Z,99594.91
2022-12-29T13:24:50.882Z,99598.22
2022-12-29T13:27:28.747Z,99578.94
2022-12-29T13:30:24.204Z,99591.00
2022-12-29T13:33:38.243Z,99615.66
2022-12-29T13:36:10.247Z,99604.69
2022-12-29T13:38:40.330Z,99601.16
2022-12-29T13:41:15.048Z,99624.56
2022-12-29T13:43:45.047Z,99628.50
2022-12-29T13:46:21.003Z,99618.13
2022-12-29T13:48:50.261Z,99622.28
2022-12-29T13:51:21.400Z,99626.47
2022-12-29T13:54:26.214Z,99622.31
2022-12-29T13:57:18.617Z,99633.28
2022-12-29T14:00:22.684Z,99641.38
2022-12-29T14:03:10.805Z,99637.84
2022-12-29T14:05:37.388Z,99638.03
2022-12-29T14:08:17.837Z,99631.00
2022-12-29T14:10:52.790Z,99640.72
2022-12-29T14:13:26.000Z,99638.91
2022-12-29T14:15:55.600Z,99645.31
2022-12-29T14:18:24.236Z,99649.88
2022-12-29T14:21:02.007Z,99647.16
2022-12-29T14:23:35.522Z,99635.13
2022-12-29T14:26:08.520Z,99654.41
2022-12-29T14:28:49.130Z,99658.56
2022-12-29T14:31:15.693Z,99658.34
2022-12-29T14:34:08.480Z,99661.81
2022-12-29T14:36:54.538Z,99660.59
2022-12-29T14:39:38.931Z,99675.47
2022-12-29T14:42:07.220Z,99671.53
2022-12-29T14:44:34.344Z,99677.34
2022-12-29T14:47:08.852Z,99678.34
2022-12-29T14:49:45.348Z,99678.34
2022-12-29T14:52:17.564Z,99682.72
2022-12-29T14:54:50.220Z,99688.13
2022-12-29T14:57:28.237Z,99678.16
2022-12-29T15:00:01.585Z,99689.13
2022-12-29T15:02:36.536Z,99683.97
2022-12-29T15:05:04.112Z,99690.75
2022-12-29T15:07:31.715Z,99695.09
2022-12-29T15:10:06.096Z,99693.63
2022-12-29T15:12:44.462Z,99684.91
2022-12-29T15:15:38.792Z,99691.50
2022-12-29T15:18:27.351Z,99697.94
2022-12-29T15:21:00.773Z,99702.69
2022-12-29T15:23:28.251Z,99699.56
2022-12-29T15:25:58.307Z,99696.03
2022-12-29T15:28:25.940Z,99696.41
2022-12-29T15:30:57.868Z,99697.47
2022-12-29T15:33:28.090Z,99701.56
2022-12-29T15:35:56.609Z,99697.63
2022-12-29T15:38:32.210Z,99698.63
2022-12-29T15:41:06.954Z,99712.50
2022-12-29T15:43:51.327Z,99722.66
2022-12-29T15:46:18.206Z,99740.63
2022-12-29T15:48:44.889Z,99735.66
2022-12-29T15:51:17.273Z,99752.63
2022-12-29T15:53:48.432Z,99740.59
2022-12-29T15:56:15.088Z,99745.75
2022-12-29T15:58:48.573Z,99749.22
2022-12-29T16:01:30.002Z,99747.69
2022-12-29T16:03:59.006Z,99762.13
2022-12-29T16:06:44.773Z,99765.78
2022-12-29T16:09:19.799Z,99766.94
2022-12-29T16:11:54.162Z,99753.63
2022-12-29T16:14:25.983Z,99764.50
2022-12-29T16:16:52.576Z,99758.41
2022-12-29T16:19:29.822Z,99759.19
2022-12-29T16:21:58.618Z,99760.78
2022-12-29T16:24:29.722Z,99758.84
2022-12-29T16:27:21.180Z,99758.56
2022-12-29T16:29:53.035Z,99759.16
2022-12-29T16:32:47.014Z,99760.75
2022-12-29T16:35:25.353Z,99770.16
2022-12-29T16:38:22.442Z,99762.00
2022-12-29T16:41:03.016Z,99759.91
2022-12-29T16:43:31.393Z,99766.03
2022-12-29T16:46:00.746Z,99769.28
2022-12-29T16:48:28.535Z,99765.50
2022-12-29T16:51:17.110Z,99770.41
2022-12-29T16:53:51.133Z,99775.97
2022-12-29T16:56:21.388Z,99772.63
2022-12-29T16:59:30.115Z,99770.78
2022-12-29T17:01:57.931Z,99780.69
2022-12-29T17:04:24.402Z,99783.38
2022-12-29T17:06:50.896Z,99774.50
2022-12-29T17:09:25.865Z,99779.66
2022-12-29T17:12:00.401Z,99784.84
2022-12-29T17:14:44.037Z,99788.00
2022-12-29T17:17:25.987Z,99781.63
2022-12-29T17:19:55.206Z,99789.47
2022-12-29T17:22:27.401Z,99793.63
2022-12-29T17:24:58.711Z,99789.91
2022-12-29T17:27:26.979Z,99791.59
2022-12-29T17:29:57.420Z,99796.59
2022-12-29T17:32:24.165Z,99797.63
2022-12-29T17:34:50.503Z,99804.00
2022-12-29T17:37:31.491Z,99791.59
2022-12-29T17:39:57.971Z,99813.28
2022-12-29T17:42:24.886Z,99815.50
2022-12-29T17:44:51.309Z,99809.69
2022-12-29T17:47:17.812Z,99807.56
2022-12-29T17:49:46.193Z,99817.63
2022-12-29T17:52:14.293Z,99811.81
2022-12-29T17:54:51.360Z,99806.63
2022-12-29T17:57:20.186Z,99806.16
2022-12-29T17:59:46.693Z,99813.56
2022-12-29T18:02:25.202Z,99806.53
2022-12-29T18:04:52.420Z,99810.41
2022-12-29T18:07:18.803Z,99814.09
2022-12-29T18:09:45.355Z,99831.25
2022-12-29T18:12:40.719Z,99836.63
2022-12-29T18:15:16.461Z,99835.13
2022-12-29T18:17:42.872Z,99842.34
2022-12-29T18:20:09.293Z,99846.88
2022-12-29T18:22:35.742Z,99845.03
2022-12-29T18:25:02.880Z,99839.66
2022-12-29T18:27:29.412Z,99853.09
2022-12-29T18:29:55.926Z,99853.94
2022-12-29T18:32:22.423Z,99847.34
2022-12-29T18:34:48.888Z,99852.72
2022-12-29T18:37:15.290Z,99849.00
2022-12-29T18:39:41.683Z,99854.38
2022-12-29T18:42:15.885Z,99857.91
2022-12-29T18:44:42.256Z,99862.44
2022-12-29T18:47:08.678Z,99862.25
2022-12-29T18:49:35.084Z,99860.41
2022-12-29T18:52:01.467Z,99860.56
2022-12-29T18:54:31.056Z,99873.84
2022-12-29T18:56:58.824Z,99876.88
2022-12-29T18:59:25.492Z,99882.44
2022-12-29T19:01:52.079Z,99884.47
2022-12-29T19:04:18.648Z,99890.03
2022-12-29T19:06:45.692Z,99893.91
2022-12-29T19:09:12.207Z,99897.13
2022-12-29T19:11:38.614Z,99888.78
2022-12-29T19:14:05.187Z,99890.34
2022-12-29T19:16:32.676Z,99891.91
2022-12-29T19:19:09.394Z,99904.38
2022-12-29T19:21:37.396Z,99902.41
2022-12-29T19:24:04.052Z,99904.78
2022-12-29T19:26:34.266Z,99905.31
2022-12-29T19:29:00.982Z,99913.88
2022-12-29T19:31:27.512Z,99912.59
2022-12-29T19:33:54.378Z,99914.16
2022-12-29T19:36:21.811Z,99913.66
2022-12-29T19:38:48.612Z,99919.38
2022-12-29T19:41:15.470Z,99922.56
2022-12-29T19:43:41.941Z,99920.59
2022-12-29T19:46:15.928Z,99929.16
2022-12-29T19:48:42.698Z,99929.03
2022-12-29T19:51:12.011Z,99941.94
2022-12-29T19:53:38.446Z,99947.00
2022-12-29T19:56:07.647Z,99947.31
2022-12-29T19:58:36.375Z,99952.03
2022-12-29T20:01:12.331Z,99951.19
2022-12-29T20:03:39.372Z,99960.91
2022-12-29T20:06:07.420Z,99962.56
2022-12-29T20:08:34.387Z,99965.91
2022-12-29T20:11:21.448Z,99967.28
2022-12-29T20:13:48.076Z,99974.13
2022-12-29T20:16:17.987Z,99970.25
2022-12-29T20:18:44.808Z,99977.31
2022-12-29T20:21:17.408Z,99982.16
2022-12-29T20:23:45.090Z,99989.84
2022-12-29T20:26:20.695Z,99981.44
2022-12-29T20:28:47.488Z,99993.66
2022-12-29T20:31:26.545Z,99987.78
2022-12-29T20:33:54.027Z,99990.28
2022-12-29T20:36:24.154Z,99992.59
2022-12-29T20:38:53.284Z,99993.28
2022-12-29T20:41:20.176Z,99995.78
2022-12-29T20:43:46.629Z,99980.53
2022-12-29T20:46:18.165Z,99984.03
2022-12-29T20:48:46.923Z,99995.44
2022-12-29T20:51:13.325Z,99998.13
2022-12-29T20:53:40.353Z,99997.09
2022-12-29T20:56:10.729Z,99995.44
2022-12-29T20:58:59.912Z,100006.84
2022-12-29T21:01:24.497Z,99993.91
2022-12-29T21:03:51.059Z,99990.38
2022-12-29T21:06:19.785Z,99998.59
2022-12-29T21:08:46.233Z,100000.81
2022-12-29T21:11:12.960Z,99988.59
2022-12-29T21:13:39.434Z,99996.97
2022-12-29T21:16:09.008Z,100007.88
2022-12-29T21:18:35.598Z,100006.56
2022-12-29T21:21:04.538Z,100006.72
2022-12-29T21:23:31.290Z,100006.06
2022-12-29T21:25:57.827Z,100024.19
2022-12-29T21:28:24.583Z,100020.00
2022-12-29T21:30:51.541Z,100029.03
2022-12-29T21:33:19.741Z,100024.69
2022-12-29T21:35:47.441Z,100020.34
2022-12-29T21:38:14.356Z,100019.50
2022-12-29T21:40:40.877Z,100021.34
2022-12-29T21:43:07.687Z,100026.72
2022-12-29T21:45:34.309Z,100034.59
2022-12-29T21:48:21.494Z,100033.56
2022-12-29T21:51:08.964Z,100041.63
2022-12-29T21:53:38.338Z,100048.66
2022-12-29T21:56:17.892Z,100045.97
2022-12-29T21:59:08.320Z,100051.31
2022-12-29T22:01:55.896Z,100047.66
2022-12-29T22:04:43.988Z,100046.63
2022-12-29T22:07:31.093Z,100055.50
2022-12-29T22:10:15.891Z,100051.84
2022-12-29T22:13:00.718Z,100053.50
2022-12-29T22:15:29.935Z,100058.69
2022-12-29T22:17:56.344Z,100056.03
2022-12-29T22:20:28.848Z,100064.91
2022-12-29T22:22:55.980Z,100075.44
2022-12-29T22:25:22.707Z,100075.44
2022-12-29T22:27:54.220Z,100082.50
2022-12-29T22:30:26.213Z,100071.56
2022-12-29T22:32:52.639Z,100092.88
2022-12-29T22:35:19.056Z,100094.88
2022-12-29T22:37:45.379Z,100094.88
2022-12-29T22:40:12.403Z,100088.69
2022-12-29T22:42:39.500Z,100088.84
2022-12-29T22:45:07.104Z,100102.25
2022-12-29T22:47:33.679Z,100104.09
2022-12-29T22:50:00.374Z,100102.25
2022-12-29T22:52:26.760Z,100115.66
2022-12-29T22:54:53.190Z,100119.19
2022-12-29T22:57:19.520Z,100114.84
2022-12-29T22:59:45.940Z,100112.00
2022-12-29T23:02:12.324Z,100131.59
2022-12-29T23:07:25.457Z,100123.38
2022-12-29T23:09:51.821Z,100131.59
2022-12-29T23:12:18.147Z,100134.28
2022-12-29T23:14:44.507Z,100132.63
2022-12-29T23:17:11.267Z,100129.94
2022-12-29T23:19:37.856Z,100136.28
2022-12-29T23:22:04.229Z,100132.94
2022-12-29T23:24:30.570Z,100153.75
2022-12-29T23:26:56.920Z,100154.91
2022-12-29T23:29:24.311Z,100152.59
2022-12-29T23:31:50.746Z,100165.47
2022-12-29T23:34:17.604Z,100168.50
2022-12-29T23:36:44.071Z,100174.00
2022-12-29T23:39:17.913Z,100177.72
2022-12-29T23:41:44.296Z,100185.91
2022-12-29T23:44:10.724Z,100184.25
2022-12-29T23:46:37.167Z,100192.28
2022-12-29T23:49:03.537Z,100201.16
2022-12-29T23:51:29.915Z,100191.28
2022-12-29T23:53:56.508Z,100184.09
2022-12-29T23:56:23.337Z,100183.06
2022-12-29T23:58:50.562Z,100199.16
